메인 페이지
METAR-TAF:

METAR-TAF

공항 :

벌링턴, 아이오와, 미국

위도: 40-46-22N, 경도: 091-07-31W, 고도: 212m

현재 날씨관측

예보는 34분 전, 16:53시(UTC)에 발표되었습니다.
동남동5kt
온도 12°C
습도 54%
기압 1022 hPa
시정: 16.1km
맑음

METAR: KBRL 051653Z AUTO 11005KT 10SM CLR 12/03 A3018 RMK AO2 SLP222 T01170028

시각: 12:27 (17:27 UTC)

예보

예보는 6 시간 7분 전, 11:20시(UTC)에 발표되었습니다.
예보 대상 시간: 05일 12시부터 06일 12시까지 (UTC)
4kt
시정: 10km
고도 10000ft 상공 구름 많음
05일 1700시부터 (UTC)
동남동7kt
시정: 10km
고도 20000ft 상공 구름 보통

TAF: KBRL 051120Z 0512/0612 09004KT P6SM BKN100 FM051700 12007KT P6SM SCT200

4,000개 이상의 공항 관측 자료 및 예보 (METAR 및 TAF 보고).

지도상에서 검색 가능한 기상관측소가 노란 점과 빨간 점으로 표시되어 있습니다.

기상관측소 명을 보려면 표시 위로 마우스를 이동하세요.

날씨 관측과 예보를 보려면 클릭하세요.

지도 변경 : 확대하려면 엑스 표시가 있는 녹색 버튼, 축소하려면 빼기 표시가 있는 녹색 버튼, 다음 페이지의 지도를 보려면 녹색 화살표를 클릭하세요.


METAR-TAF: